Time;durP1;ratioP1;P1;durP2;ratioP2;P2;SDS_P1;SDS_P2;PMS_P1;PMS_P2;Temp;Humidity;BMP_temperature;BMP_pressure;BME280_temperature;BME280_humidity;BME280_pressure;Samples;Min_cycle;Max_cycle;Signal;HPM_P1;HPM_P2
2021/12/06 00:00:54;;;;;;;0.27;0.27;;;5.30;99.90;;;;;;4881701;29;20188;-79
2021/12/06 00:03:29;;;;;;;0.10;0.10;;;5.30;99.90;;;;;;4875274;29;20248;-79
2021/12/06 00:05:55;;;;;;;0.17;0.17;;;5.40;99.90;;;;;;4877121;29;20207;-79
2021/12/06 00:08:20;;;;;;;0.50;0.50;;;5.40;99.90;;;;;;4875912;29;20196;-78
2021/12/06 00:10:50;;;;;;;0.10;0.10;;;5.40;99.90;;;;;;4882581;29;20197;-78
2021/12/06 00:13:18;;;;;;;0.23;0.23;;;5.40;99.90;;;;;;4880524;29;20244;-79
2021/12/06 00:15:48;;;;;;;0.43;0.40;;;5.50;99.90;;;;;;4879416;29;20204;-79
2021/12/06 00:18:13;;;;;;;0.40;0.40;;;5.50;99.90;;;;;;4885886;29;20290;-80
2021/12/06 00:20:39;;;;;;;0.37;0.37;;;5.50;99.90;;;;;;4884566;29;20247;-78
2021/12/06 00:23:04;;;;;;;1.03;0.63;;;5.50;99.90;;;;;;4881066;29;20255;-79
2021/12/06 00:25:30;;;;;;;0.30;0.30;;;5.50;99.90;;;;;;4876007;29;20218;-78
2021/12/06 00:27:55;;;;;;;0.20;0.20;;;5.50;99.90;;;;;;4876734;29;20283;-79
2021/12/06 00:30:21;;;;;;;0.23;0.23;;;5.30;99.90;;;;;;4876562;29;20310;-79
2021/12/06 00:32:47;;;;;;;0.73;0.73;;;5.30;99.90;;;;;;4884938;29;20184;-78
2021/12/06 00:35:19;;;;;;;0.97;0.50;;;5.30;99.90;;;;;;4885824;29;20196;-78
2021/12/06 00:37:55;;;;;;;0.43;0.43;;;5.20;99.90;;;;;;4886363;29;20251;-79
2021/12/06 00:40:21;;;;;;;0.40;0.40;;;5.20;99.90;;;;;;4891314;29;20222;-82
2021/12/06 00:42:47;;;;;;;0.93;0.93;;;5.10;99.90;;;;;;4883101;29;20263;-81
2021/12/06 00:45:13;;;;;;;0.13;0.13;;;5.10;99.90;;;;;;4884646;29;20226;-82
2021/12/06 00:47:38;;;;;;;0.30;0.30;;;5.00;99.90;;;;;;4908172;29;20645;-81
2021/12/06 00:50:05;;;;;;;1.40;1.30;;;4.90;99.90;;;;;;4885738;29;20203;-80
2021/12/06 00:52:31;;;;;;;0.40;0.40;;;4.90;99.90;;;;;;4882965;29;20202;-82
2021/12/06 00:54:57;;;;;;;0.67;0.63;;;4.80;99.90;;;;;;4883886;29;20275;-81
2021/12/06 00:57:22;;;;;;;0.63;0.63;;;4.70;99.90;;;;;;4893537;29;20247;-80
2021/12/06 00:59:48;;;;;;;0.30;0.30;;;4.60;99.90;;;;;;4888253;29;20199;-81
2021/12/06 01:02:16;;;;;;;0.30;0.30;;;4.60;99.90;;;;;;4886240;29;20249;-81
2021/12/06 01:04:45;;;;;;;0.53;0.53;;;4.50;99.90;;;;;;4892041;29;20199;-80
2021/12/06 01:07:11;;;;;;;0.83;0.50;;;4.50;99.90;;;;;;4881093;29;20224;-81
2021/12/06 01:09:37;;;;;;;0.70;0.70;;;4.40;99.90;;;;;;4881309;29;20186;-81
2021/12/06 01:12:04;;;;;;;0.63;0.40;;;4.30;99.90;;;;;;4880750;29;20185;-82
2021/12/06 01:14:30;;;;;;;0.30;0.30;;;4.20;99.90;;;;;;4890709;29;20227;-82
2021/12/06 01:16:56;;;;;;;0.53;0.53;;;4.10;99.90;;;;;;4884802;29;20242;-80
2021/12/06 01:19:27;;;;;;;0.50;0.50;;;4.10;99.90;;;;;;4885598;29;20208;-81
2021/12/06 01:22:08;;;;;;;0.20;0.20;;;4.10;99.90;;;;;;4880056;29;20194;-81
2021/12/06 01:24:40;;;;;;;0.37;0.37;;;4.10;99.90;;;;;;4885661;29;20187;-82
2021/12/06 01:30:51;;;;;;;1.30;1.13;;;4.10;99.90;;;;;;4872833;29;20215;-81
2021/12/06 01:40:41;;;;;;;0.60;0.60;;;4.00;99.90;;;;;;4885165;29;20272;-81
2021/12/06 01:43:07;;;;;;;0.33;0.33;;;3.90;99.90;;;;;;4882789;29;20185;-82
2021/12/06 01:45:33;;;;;;;1.40;0.40;;;4.00;99.90;;;;;;4879217;29;20215;-81
2021/12/06 01:47:59;;;;;;;0.73;0.37;;;4.00;99.90;;;;;;4881337;29;20182;-82
2021/12/06 01:50:28;;;;;;;0.33;0.33;;;3.90;99.90;;;;;;4880675;29;20210;-82
2021/12/06 01:52:56;;;;;;;0.30;0.30;;;4.00;99.90;;;;;;4875101;29;20187;-81
2021/12/06 01:55:26;;;;;;;0.30;0.30;;;4.00;99.90;;;;;;4878410;29;20271;-82
2021/12/06 01:57:53;;;;;;;0.33;0.20;;;4.00;99.90;;;;;;4880208;29;20184;-81
2021/12/06 02:00:48;;;;;;;0.53;0.53;;;4.10;99.90;;;;;;4880152;29;20257;-81
2021/12/06 02:03:14;;;;;;;1.43;0.90;;;4.10;99.90;;;;;;4880503;29;20186;-81
2021/12/06 02:05:42;;;;;;;0.33;0.33;;;4.10;99.90;;;;;;4886982;29;20270;-81
2021/12/06 02:08:09;;;;;;;0.57;0.57;;;4.10;99.90;;;;;;4886755;29;20194;-81
2021/12/06 02:10:35;;;;;;;0.30;0.30;;;4.00;99.90;;;;;;4887024;29;20222;-82
2021/12/06 02:13:01;;;;;;;1.30;0.83;;;4.00;99.90;;;;;;4885828;29;20184;-82
2021/12/06 02:15:38;;;;;;;7.23;0.80;;;3.90;99.90;;;;;;4889739;29;20202;-82
2021/12/06 02:18:10;;;;;;;0.27;0.27;;;3.90;99.90;;;;;;4879924;29;20575;-82
2021/12/06 02:20:45;;;;;;;0.10;0.10;;;4.00;99.90;;;;;;4879278;29;20207;-82
2021/12/06 02:23:11;;;;;;;0.30;0.27;;;4.00;99.90;;;;;;4878193;29;20209;-82
2021/12/06 02:25:37;;;;;;;0.80;0.80;;;4.00;99.90;;;;;;4883126;29;20259;-81
2021/12/06 02:28:03;;;;;;;0.77;0.77;;;4.00;99.90;;;;;;4888636;29;20241;-81
2021/12/06 02:30:28;;;;;;;0.10;0.10;;;4.00;99.90;;;;;;4879992;29;20206;-82
2021/12/06 02:32:54;;;;;;;0.53;0.27;;;3.90;99.90;;;;;;4881495;29;20190;-81
2021/12/06 02:35:22;;;;;;;1.20;1.20;;;4.00;99.90;;;;;;4877960;29;20267;-81
2021/12/06 02:37:49;;;;;;;0.30;0.10;;;4.10;99.90;;;;;;4883739;29;20183;-81
2021/12/06 02:40:19;;;;;;;0.60;0.60;;;4.10;99.90;;;;;;4876147;29;20198;-82
2021/12/06 02:42:46;;;;;;;0.30;0.30;;;4.20;99.90;;;;;;4883831;29;20654;-81
2021/12/06 02:45:14;;;;;;;0.20;0.20;;;4.30;99.90;;;;;;4883246;29;20214;-81
2021/12/06 02:47:40;;;;;;;0.10;0.10;;;4.30;99.90;;;;;;4888888;29;20291;-81
2021/12/06 02:50:09;;;;;;;7.53;0.50;;;4.10;99.90;;;;;;4885230;29;20214;-81
2021/12/06 02:52:39;;;;;;;0.17;0.17;;;4.10;99.90;;;;;;4887284;29;20241;-81
2021/12/06 02:55:23;;;;;;;1.70;1.60;;;4.00;99.90;;;;;;4889101;29;20206;-81
2021/12/06 02:57:54;;;;;;;0.10;0.10;;;4.00;99.90;;;;;;4881980;29;20195;-81
2021/12/06 03:00:20;;;;;;;0.53;0.47;;;3.90;99.90;;;;;;4886797;29;20552;-81
2021/12/06 03:02:46;;;;;;;0.33;0.33;;;3.90;99.90;;;;;;4883060;29;20198;-82
2021/12/06 03:05:12;;;;;;;0.47;0.47;;;3.90;99.90;;;;;;4889196;29;20211;-81
2021/12/06 03:07:38;;;;;;;2.73;0.37;;;3.90;99.90;;;;;;4888191;29;20197;-81
2021/12/06 03:10:06;;;;;;;0.67;0.63;;;3.90;99.90;;;;;;4883580;29;20224;-81
2021/12/06 03:12:32;;;;;;;0.53;0.53;;;3.80;99.90;;;;;;4886728;29;20225;-81
2021/12/06 03:14:59;;;;;;;0.37;0.20;;;3.80;99.90;;;;;;4885398;29;20656;-81
2021/12/06 03:17:28;;;;;;;0.10;0.10;;;3.80;99.90;;;;;;4885104;29;20230;-82
2021/12/06 03:19:54;;;;;;;0.37;0.37;;;3.80;99.90;;;;;;4884277;29;20555;-81
2021/12/06 03:22:20;;;;;;;0.30;0.30;;;3.80;99.90;;;;;;4882952;29;20190;-81
2021/12/06 03:24:46;;;;;;;0.20;0.20;;;3.70;99.90;;;;;;4882431;29;20189;-81
2021/12/06 03:27:13;;;;;;;0.20;0.20;;;3.60;99.90;;;;;;4883071;29;20589;-81
2021/12/06 03:29:39;;;;;;;0.70;0.70;;;3.60;99.90;;;;;;4878985;29;20191;-80
2021/12/06 03:32:05;;;;;;;2.13;0.60;;;3.70;99.90;;;;;;4882868;29;20188;-81
2021/12/06 03:34:32;;;;;;;1.20;1.20;;;3.50;99.90;;;;;;4880278;29;20189;-81
2021/12/06 03:37:01;;;;;;;0.20;0.20;;;3.30;99.90;;;;;;4885010;29;20214;-82
2021/12/06 03:39:31;;;;;;;3.50;0.80;;;3.20;99.90;;;;;;4885876;29;20194;-81
2021/12/06 03:42:00;;;;;;;0.10;0.10;;;3.00;99.90;;;;;;4880432;29;20189;-81
2021/12/06 03:44:26;;;;;;;0.37;0.37;;;2.90;99.90;;;;;;4886330;29;20566;-81
2021/12/06 03:46:56;;;;;;;1.30;0.83;;;3.10;99.90;;;;;;4889039;29;20658;-82
2021/12/06 03:49:22;;;;;;;0.40;0.30;;;3.30;99.90;;;;;;4890990;29;20878;-81
2021/12/06 03:51:48;;;;;;;0.40;0.40;;;3.30;99.90;;;;;;4888091;29;20217;-82
2021/12/06 03:54:18;;;;;;;0.33;0.33;;;3.20;99.90;;;;;;4885994;29;20192;-81
2021/12/06 03:56:44;;;;;;;0.10;0.10;;;3.30;99.90;;;;;;4876740;29;20725;-81
2021/12/06 03:59:10;;;;;;;0.60;0.60;;;3.30;99.90;;;;;;4875762;29;20190;-81
2021/12/06 04:01:36;;;;;;;0.40;0.30;;;3.40;99.90;;;;;;4877953;29;20252;-81
2021/12/06 04:04:05;;;;;;;0.30;0.10;;;3.50;99.90;;;;;;4887853;29;20193;-81
2021/12/06 04:06:31;;;;;;;0.10;0.10;;;3.60;99.90;;;;;;4877153;29;20206;-81
2021/12/06 04:08:57;;;;;;;2.10;0.30;;;3.70;99.90;;;;;;4873475;29;20619;-81
2021/12/06 04:11:23;;;;;;;0.10;0.10;;;3.90;99.90;;;;;;4874216;29;20217;-81
2021/12/06 04:13:49;;;;;;;0.77;0.60;;;4.00;99.90;;;;;;4880649;29;20269;-81
2021/12/06 04:16:16;;;;;;;0.37;0.37;;;4.10;99.90;;;;;;4871993;29;20313;-81
2021/12/06 04:18:42;;;;;;;0.23;0.23;;;4.20;99.90;;;;;;4871054;29;20193;-81
2021/12/06 04:21:09;;;;;;;0.20;0.20;;;4.20;99.90;;;;;;4867228;29;20202;-81
2021/12/06 04:23:36;;;;;;;0.20;0.20;;;4.30;99.90;;;;;;4872206;29;20194;-81
2021/12/06 04:26:02;;;;;;;0.10;0.10;;;4.30;99.90;;;;;;4876243;29;20273;-79
2021/12/06 04:28:30;;;;;;;0.20;0.20;;;4.30;99.90;;;;;;4874260;29;20285;-79
2021/12/06 04:30:56;;;;;;;0.20;0.20;;;4.40;99.90;;;;;;4878340;29;20210;-79
2021/12/06 04:33:22;;;;;;;0.10;0.10;;;4.40;99.90;;;;;;4876254;29;20243;-81
2021/12/06 04:35:48;;;;;;;1.07;1.03;;;4.40;99.90;;;;;;4871396;29;20966;-79
2021/12/06 04:38:14;;;;;;;0.33;0.33;;;4.30;99.90;;;;;;4872186;29;20187;-79
2021/12/06 04:40:40;;;;;;;0.13;0.10;;;4.30;99.90;;;;;;4878471;29;20195;-80
2021/12/06 04:43:06;;;;;;;0.30;0.30;;;4.30;99.90;;;;;;4878022;29;20194;-79
2021/12/06 04:45:32;;;;;;;0.97;0.43;;;4.10;99.90;;;;;;4875392;29;20221;-79
2021/12/06 04:47:57;;;;;;;0.10;0.10;;;4.10;99.90;;;;;;4867850;29;20195;-79
2021/12/06 04:50:26;;;;;;;2.90;1.27;;;4.10;99.90;;;;;;4874398;29;20204;-79
2021/12/06 04:53:00;;;;;;;2.23;0.43;;;4.20;99.90;;;;;;4869412;29;20198;-79
2021/12/06 04:55:40;;;;;;;0.40;0.40;;;4.30;99.90;;;;;;4873320;29;20214;-79
2021/12/06 04:58:08;;;;;;;0.13;0.13;;;4.30;99.90;;;;;;4873082;29;20192;-79
2021/12/06 05:00:50;;;;;;;0.30;0.30;;;4.40;99.90;;;;;;4875729;29;20194;-79
2021/12/06 05:03:17;;;;;;;0.57;0.57;;;4.40;99.90;;;;;;4864385;29;20254;-79
2021/12/06 05:05:50;;;;;;;1.43;1.03;;;4.40;99.90;;;;;;4880737;29;20218;-79
2021/12/06 05:08:26;;;;;;;0.47;0.30;;;4.40;99.90;;;;;;4874646;29;20564;-79
2021/12/06 05:10:54;;;;;;;0.10;0.10;;;4.40;99.90;;;;;;4865706;29;20205;-79
2021/12/06 05:13:21;;;;;;;0.77;0.77;;;4.40;99.90;;;;;;4876910;29;20192;-79
2021/12/06 05:15:46;;;;;;;0.20;0.20;;;4.50;99.90;;;;;;4878039;29;20828;-79
2021/12/06 05:18:12;;;;;;;0.20;0.20;;;4.40;99.90;;;;;;4871372;29;20201;-79
2021/12/06 05:20:38;;;;;;;0.20;0.20;;;4.40;99.90;;;;;;4875734;29;20207;-80
2021/12/06 05:23:06;;;;;;;1.53;0.70;;;4.40;99.90;;;;;;4882532;29;20289;-80
2021/12/06 05:25:32;;;;;;;0.47;0.47;;;4.00;99.90;;;;;;4873221;29;20313;-79
2021/12/06 05:27:59;;;;;;;0.40;0.40;;;3.70;99.90;;;;;;4872395;29;20192;-79
2021/12/06 05:30:26;;;;;;;0.17;0.17;;;3.60;99.90;;;;;;4873004;29;20206;-79
2021/12/06 05:32:52;;;;;;;0.40;0.40;;;3.80;99.90;;;;;;4872051;29;20664;-79
2021/12/06 05:35:18;;;;;;;0.40;0.40;;;3.90;99.90;;;;;;4870452;29;20210;-79
2021/12/06 05:37:47;;;;;;;0.17;0.17;;;4.00;99.90;;;;;;4876142;29;20187;-79
2021/12/06 05:40:19;;;;;;;0.20;0.20;;;4.10;99.90;;;;;;4873571;29;20190;-79
2021/12/06 05:42:46;;;;;;;0.53;0.53;;;4.20;99.90;;;;;;4875052;29;20837;-79
2021/12/06 05:45:14;;;;;;;0.30;0.30;;;4.10;99.90;;;;;;4872131;29;20331;-79
2021/12/06 05:47:39;;;;;;;0.13;0.13;;;4.20;99.90;;;;;;4879919;29;20623;-80
2021/12/06 05:50:06;;;;;;;0.10;0.10;;;4.30;99.90;;;;;;4879552;29;20236;-80
2021/12/06 05:52:33;;;;;;;0.80;0.60;;;4.30;99.90;;;;;;4882042;29;20198;-80
2021/12/06 05:54:58;;;;;;;0.40;0.40;;;4.30;99.90;;;;;;4877812;29;20693;-81
2021/12/06 05:57:24;;;;;;;0.10;0.10;;;4.40;99.90;;;;;;4874475;29;20179;-80
2021/12/06 05:59:50;;;;;;;0.60;0.60;;;4.40;99.90;;;;;;4870268;29;20189;-79
2021/12/06 06:02:17;;;;;;;0.33;0.33;;;4.50;99.90;;;;;;4874792;29;20189;-78
2021/12/06 06:04:43;;;;;;;0.60;0.30;;;4.50;99.90;;;;;;4868325;29;20657;-79
2021/12/06 06:07:09;;;;;;;0.43;0.43;;;4.50;99.90;;;;;;4871129;29;20215;-80
2021/12/06 06:09:34;;;;;;;0.30;0.23;;;4.50;99.90;;;;;;4874765;29;21863;-80
2021/12/06 06:12:01;;;;;;;0.70;0.70;;;4.50;99.90;;;;;;4879916;29;20193;-79
2021/12/06 06:14:27;;;;;;;0.20;0.20;;;4.50;99.90;;;;;;4872027;29;20190;-82
2021/12/06 06:16:53;;;;;;;0.20;0.20;;;4.40;99.90;;;;;;4872773;29;20223;-82
2021/12/06 06:19:24;;;;;;;0.30;0.30;;;4.50;99.90;;;;;;4872732;29;20199;-82
2021/12/06 06:21:52;;;;;;;0.30;0.30;;;4.50;99.90;;;;;;4872795;29;20189;-83
2021/12/06 06:24:17;;;;;;;0.10;0.10;;;4.50;99.90;;;;;;4874803;29;20216;-81
2021/12/06 06:26:43;;;;;;;0.20;0.20;;;4.50;99.90;;;;;;4873061;29;20230;-80
2021/12/06 06:29:11;;;;;;;0.40;0.30;;;4.60;99.90;;;;;;4877150;29;20194;-79
2021/12/06 06:31:37;;;;;;;0.50;0.23;;;4.60;99.90;;;;;;4865082;29;20212;-80
2021/12/06 06:34:03;;;;;;;0.90;0.60;;;4.60;99.90;;;;;;4873192;29;20206;-78
2021/12/06 06:36:29;;;;;;;1.93;0.77;;;4.60;99.90;;;;;;4876923;29;20618;-80
2021/12/06 06:38:55;;;;;;;0.50;0.50;;;4.60;99.90;;;;;;4873127;29;20226;-79
2021/12/06 06:41:20;;;;;;;1.77;1.13;;;4.50;99.90;;;;;;4876616;29;20667;-79
2021/12/06 06:43:46;;;;;;;0.57;0.40;;;4.50;99.90;;;;;;4875272;29;20279;-79
2021/12/06 06:46:12;;;;;;;0.20;0.20;;;4.50;99.90;;;;;;4872565;29;20587;-79
2021/12/06 06:48:38;;;;;;;1.00;0.97;;;4.50;99.90;;;;;;4874296;29;20281;-80
2021/12/06 06:51:03;;;;;;;0.13;0.13;;;4.50;99.90;;;;;;4866516;29;20243;-79
2021/12/06 06:53:30;;;;;;;0.70;0.70;;;4.50;99.90;;;;;;4876384;29;20221;-79
2021/12/06 06:55:57;;;;;;;1.13;0.43;;;4.50;99.90;;;;;;4873851;29;20239;-79
2021/12/06 06:58:23;;;;;;;2.47;1.10;;;4.50;99.90;;;;;;4868400;29;20278;-79
2021/12/06 07:00:49;;;;;;;0.40;0.40;;;4.30;99.90;;;;;;4874104;29;20187;-79
2021/12/06 07:03:15;;;;;;;1.40;0.40;;;4.10;99.90;;;;;;4874910;29;20201;-80
2021/12/06 07:05:41;;;;;;;0.33;0.27;;;4.20;99.90;;;;;;4875216;29;20358;-81
2021/12/06 07:08:07;;;;;;;0.37;0.37;;;4.20;99.90;;;;;;4872612;29;20185;-80
2021/12/06 07:10:33;;;;;;;0.20;0.20;;;4.20;99.90;;;;;;4866556;29;20223;-81
2021/12/06 07:13:03;;;;;;;0.40;0.40;;;4.30;99.90;;;;;;4869743;29;20553;-81
2021/12/06 07:15:32;;;;;;;1.67;0.73;;;4.30;99.90;;;;;;4875565;29;20215;-81
2021/12/06 07:17:59;;;;;;;1.70;0.73;;;4.40;99.90;;;;;;4873898;29;20199;-79
2021/12/06 07:20:25;;;;;;;1.00;1.00;;;4.50;99.90;;;;;;4873014;29;20300;-80
2021/12/06 07:22:52;;;;;;;0.33;0.33;;;4.50;99.90;;;;;;4870949;29;20407;-79
2021/12/06 07:25:19;;;;;;;0.30;0.30;;;4.40;99.90;;;;;;4874353;29;20731;-79
2021/12/06 07:27:46;;;;;;;0.30;0.30;;;4.10;99.90;;;;;;4868392;29;20567;-79
2021/12/06 07:30:14;;;;;;;2.00;1.60;;;4.20;99.90;;;;;;4872601;29;20337;-79
2021/12/06 07:32:40;;;;;;;0.50;0.50;;;4.30;99.90;;;;;;4875532;29;20659;-80
2021/12/06 07:35:08;;;;;;;0.63;0.53;;;4.40;99.90;;;;;;4875225;29;20212;-79
2021/12/06 07:37:34;;;;;;;0.23;0.23;;;4.50;99.90;;;;;;4872645;29;20194;-79
2021/12/06 07:40:00;;;;;;;0.33;0.33;;;4.40;99.90;;;;;;4872793;29;20195;-79
2021/12/06 07:42:25;;;;;;;0.53;0.53;;;4.50;99.90;;;;;;4868859;29;20276;-79
2021/12/06 07:44:52;;;;;;;0.37;0.30;;;4.60;99.90;;;;;;4863863;29;20196;-79
2021/12/06 07:47:18;;;;;;;0.93;0.77;;;4.70;99.90;;;;;;4869476;29;20197;-79
2021/12/06 07:49:44;;;;;;;0.33;0.33;;;4.80;99.90;;;;;;4864442;29;20201;-79
2021/12/06 07:52:10;;;;;;;1.90;0.60;;;4.80;99.90;;;;;;4869821;29;20190;-79
2021/12/06 07:54:36;;;;;;;0.40;0.40;;;4.80;99.90;;;;;;4864054;29;20607;-79
2021/12/06 07:57:02;;;;;;;2.10;0.83;;;4.90;99.90;;;;;;4878108;29;20186;-79
2021/12/06 07:59:28;;;;;;;0.83;0.80;;;4.90;99.90;;;;;;4872407;29;20274;-79
2021/12/06 08:01:53;;;;;;;0.97;0.40;;;4.90;99.90;;;;;;4874896;29;20550;-78
2021/12/06 08:04:19;;;;;;;0.97;0.93;;;5.00;99.90;;;;;;4866782;29;20198;-80
2021/12/06 08:06:45;;;;;;;0.70;0.70;;;5.00;99.90;;;;;;4868831;29;20218;-79
2021/12/06 08:09:11;;;;;;;0.57;0.57;;;4.90;99.90;;;;;;4867496;29;20726;-79
2021/12/06 08:11:38;;;;;;;2.43;0.53;;;4.70;99.90;;;;;;4864278;29;20222;-79
2021/12/06 08:14:04;;;;;;;0.53;0.53;;;4.70;99.90;;;;;;4871474;29;20796;-79
2021/12/06 08:16:34;;;;;;;1.23;1.13;;;4.70;99.90;;;;;;4868057;29;20573;-79
2021/12/06 08:19:00;;;;;;;0.30;0.30;;;4.70;99.90;;;;;;4868625;29;20213;-79
2021/12/06 08:21:27;;;;;;;1.37;1.00;;;4.50;99.90;;;;;;4868978;29;20223;-79
2021/12/06 08:23:54;;;;;;;1.07;0.87;;;4.40;99.90;;;;;;4865508;29;20204;-81
2021/12/06 08:26:24;;;;;;;1.27;0.40;;;4.20;99.90;;;;;;4867853;29;20207;-81
2021/12/06 08:28:50;;;;;;;0.63;0.63;;;4.20;99.90;;;;;;4868440;29;20679;-82
2021/12/06 08:31:18;;;;;;;0.40;0.40;;;4.10;99.90;;;;;;4877259;29;20273;-81
2021/12/06 08:33:46;;;;;;;1.17;1.17;;;4.10;99.90;;;;;;4875571;29;20312;-81
2021/12/06 08:36:12;;;;;;;0.57;0.50;;;4.10;99.90;;;;;;4881820;29;20210;-80
2021/12/06 08:38:39;;;;;;;0.60;0.40;;;4.10;99.90;;;;;;4874614;29;20204;-81
2021/12/06 08:41:10;;;;;;;1.30;0.97;;;4.10;99.90;;;;;;4879806;29;20202;-82
2021/12/06 08:43:36;;;;;;;0.63;0.63;;;4.00;99.90;;;;;;4875026;29;20196;-82
2021/12/06 08:46:09;;;;;;;0.60;0.60;;;3.90;99.90;;;;;;4877038;29;20246;-81
2021/12/06 08:48:38;;;;;;;0.80;0.80;;;3.80;99.90;;;;;;4883390;29;20202;-81
2021/12/06 08:51:10;;;;;;;0.60;0.60;;;3.70;99.90;;;;;;4883919;29;20205;-80
2021/12/06 08:53:37;;;;;;;2.43;0.93;;;3.70;99.90;;;;;;4883201;29;20191;-81
2021/12/06 08:56:03;;;;;;;0.30;0.30;;;3.70;99.90;;;;;;4877171;29;20209;-80
2021/12/06 08:58:29;;;;;;;0.60;0.60;;;3.70;99.90;;;;;;4883469;29;20194;-80
2021/12/06 09:00:55;;;;;;;0.50;0.50;;;3.70;99.90;;;;;;4872542;29;20196;-81
2021/12/06 09:03:20;;;;;;;0.20;0.20;;;3.70;99.90;;;;;;4873244;29;20207;-81
2021/12/06 09:05:50;;;;;;;0.73;0.57;;;3.70;99.90;;;;;;4884377;29;20234;-81
2021/12/06 09:08:16;;;;;;;0.50;0.50;;;3.80;99.90;;;;;;4878729;29;20194;-81
2021/12/06 09:10:44;;;;;;;0.80;0.80;;;3.80;99.90;;;;;;4881447;29;20210;-81
2021/12/06 09:13:10;;;;;;;2.00;0.87;;;3.80;99.90;;;;;;4882030;29;20188;-80
2021/12/06 09:15:36;;;;;;;0.67;0.50;;;3.80;99.90;;;;;;4880824;29;20229;-80
2021/12/06 09:18:03;;;;;;;0.67;0.43;;;3.90;99.90;;;;;;4877812;29;20660;-82
2021/12/06 09:20:33;;;;;;;0.63;0.63;;;4.20;99.90;;;;;;4878210;29;20632;-80
2021/12/06 09:22:59;;;;;;;0.43;0.43;;;4.50;99.90;;;;;;4883496;29;20211;-81
2021/12/06 09:25:25;;;;;;;0.17;0.17;;;4.70;99.90;;;;;;4876016;29;20216;-81
2021/12/06 09:27:51;;;;;;;0.60;0.60;;;4.80;99.90;;;;;;4881411;29;20188;-80
2021/12/06 09:30:20;;;;;;;1.43;1.13;;;5.00;99.90;;;;;;4882246;29;20209;-79
2021/12/06 09:32:47;;;;;;;0.40;0.40;;;5.10;99.90;;;;;;4868557;29;20275;-78
2021/12/06 09:35:18;;;;;;;0.70;0.70;;;5.20;99.90;;;;;;4875094;29;20208;-79
2021/12/06 09:37:44;;;;;;;0.40;0.40;;;5.30;99.90;;;;;;4879475;29;20274;-79
2021/12/06 09:40:11;;;;;;;0.90;0.90;;;5.40;99.90;;;;;;4874856;29;20266;-79
2021/12/06 09:42:37;;;;;;;1.10;0.87;;;5.50;99.90;;;;;;4869338;29;20194;-79
2021/12/06 09:45:09;;;;;;;0.20;0.20;;;5.60;99.90;;;;;;4867047;29;20298;-80
2021/12/06 09:47:35;;;;;;;0.40;0.40;;;5.60;99.90;;;;;;4869952;29;20656;-79
2021/12/06 09:50:02;;;;;;;1.10;1.10;;;5.70;99.90;;;;;;4867118;29;20191;-79
2021/12/06 09:52:27;;;;;;;1.13;1.13;;;5.70;99.90;;;;;;4870397;29;20240;-80
2021/12/06 09:54:53;;;;;;;0.60;0.60;;;5.90;99.90;;;;;;4864486;29;20186;-79
2021/12/06 09:57:19;;;;;;;1.07;0.80;;;6.00;99.90;;;;;;4865154;29;20192;-78
2021/12/06 09:59:46;;;;;;;0.67;0.67;;;6.10;99.90;;;;;;4867132;29;20213;-79
2021/12/06 10:02:18;;;;;;;1.17;1.07;;;6.20;99.90;;;;;;4876502;29;20244;-79
2021/12/06 10:04:48;;;;;;;0.40;0.40;;;6.30;99.90;;;;;;4867658;29;20206;-80
2021/12/06 10:07:15;;;;;;;1.10;0.20;;;6.30;99.90;;;;;;4868100;29;20187;-79
2021/12/06 10:09:42;;;;;;;0.30;0.23;;;6.30;99.90;;;;;;4868234;29;20190;-79
2021/12/06 10:12:09;;;;;;;2.73;0.80;;;6.40;99.90;;;;;;4867954;29;20244;-79
2021/12/06 10:14:36;;;;;;;0.40;0.40;;;6.40;99.90;;;;;;4868995;29;20304;-79
2021/12/06 10:17:04;;;;;;;0.50;0.50;;;6.30;99.90;;;;;;4868769;29;20219;-79
2021/12/06 10:19:30;;;;;;;1.60;0.90;;;6.40;99.90;;;;;;4870096;29;20200;-79
2021/12/06 10:21:56;;;;;;;0.87;0.87;;;6.40;99.90;;;;;;4867942;29;20213;-79
2021/12/06 10:24:25;;;;;;;1.50;1.37;;;6.50;99.90;;;;;;4866759;29;20229;-79
2021/12/06 10:27:05;;;;;;;0.57;0.57;;;6.60;99.90;;;;;;4871943;29;20701;-79
2021/12/06 10:29:59;;;;;;;0.50;0.50;;;6.40;99.90;;;;;;4870180;29;20195;-79
2021/12/06 10:32:30;;;;;;;0.90;0.90;;;6.20;99.90;;;;;;4872604;29;20294;-79
2021/12/06 10:35:16;;;;;;;0.40;0.40;;;6.20;99.90;;;;;;4876946;29;20191;-79
2021/12/06 10:37:51;;;;;;;0.37;0.37;;;6.20;99.90;;;;;;4873085;29;20216;-79
2021/12/06 10:40:22;;;;;;;1.10;0.87;;;6.30;99.90;;;;;;4875432;29;20203;-79
2021/12/06 10:42:50;;;;;;;0.77;0.77;;;6.40;99.90;;;;;;4872137;29;20363;-79
2021/12/06 10:45:19;;;;;;;0.70;0.70;;;6.30;99.90;;;;;;4886704;29;20712;-82
2021/12/06 10:48:07;;;;;;;0.33;0.33;;;6.20;99.90;;;;;;4876989;29;20196;-79
2021/12/06 10:50:32;;;;;;;0.37;0.37;;;6.00;99.90;;;;;;4875863;29;20212;-79
2021/12/06 10:53:00;;;;;;;1.20;1.10;;;6.20;99.90;;;;;;4875200;29;20191;-79
2021/12/06 10:55:29;;;;;;;0.50;0.30;;;6.30;99.90;;;;;;4887300;29;20217;-79
2021/12/06 10:58:02;;;;;;;0.20;0.20;;;6.40;99.90;;;;;;4867842;29;20184;-79
2021/12/06 11:00:38;;;;;;;0.50;0.50;;;6.50;99.90;;;;;;4873958;29;20190;-79
2021/12/06 11:03:05;;;;;;;1.93;0.80;;;6.60;99.90;;;;;;4875126;29;20247;-79
2021/12/06 11:05:34;;;;;;;0.30;0.30;;;7.10;99.90;;;;;;4870168;29;20228;-79
2021/12/06 11:08:10;;;;;;;0.30;0.30;;;7.10;99.90;;;;;;4874551;29;20248;-79
2021/12/06 11:10:45;;;;;;;0.20;0.20;;;7.20;99.90;;;;;;4875480;29;20263;-79
2021/12/06 11:13:15;;;;;;;0.53;0.53;;;7.30;99.90;;;;;;4878941;29;20215;-79
2021/12/06 11:15:57;;;;;;;0.33;0.33;;;7.40;99.90;;;;;;4873154;29;20701;-79
2021/12/06 11:18:36;;;;;;;1.03;0.70;;;7.30;99.90;;;;;;4867298;29;20243;-80
2021/12/06 11:21:04;;;;;;;1.23;0.40;;;7.30;99.90;;;;;;4872050;29;20192;-79
2021/12/06 11:23:31;;;;;;;0.60;0.60;;;7.30;99.90;;;;;;4875717;29;20221;-79
2021/12/06 11:25:59;;;;;;;4.97;0.67;;;7.30;99.90;;;;;;4866824;29;20218;-79
2021/12/06 11:28:27;;;;;;;1.07;0.83;;;7.30;99.90;;;;;;4875793;29;20188;-79
2021/12/06 11:31:03;;;;;;;0.30;0.30;;;7.40;99.90;;;;;;4872653;29;20207;-79
2021/12/06 11:33:34;;;;;;;2.20;0.63;;;7.30;99.90;;;;;;4871170;29;20282;-81
2021/12/06 11:36:02;;;;;;;0.53;0.53;;;7.00;99.90;;;;;;4873583;29;20267;-81
2021/12/06 11:38:30;;;;;;;0.73;0.73;;;6.90;99.90;;;;;;4876412;29;20215;-81
2021/12/06 11:40:59;;;;;;;0.30;0.30;;;6.90;99.90;;;;;;4877754;29;20215;-82
2021/12/06 11:43:26;;;;;;;0.93;0.67;;;7.10;99.90;;;;;;4877773;29;20223;-82
2021/12/06 11:45:56;;;;;;;1.80;1.40;;;7.10;99.90;;;;;;4875707;29;20615;-82
2021/12/06 11:48:27;;;;;;;1.50;0.60;;;7.10;99.90;;;;;;4875035;29;20203;-80
2021/12/06 11:50:52;;;;;;;1.20;0.63;;;7.10;99.90;;;;;;4873426;29;20251;-79
2021/12/06 11:53:27;;;;;;;0.30;0.30;;;7.10;99.90;;;;;;4875623;29;20681;-80
2021/12/06 11:55:56;;;;;;;0.33;0.33;;;7.10;99.90;;;;;;4870186;29;20211;-80
2021/12/06 11:58:22;;;;;;;0.70;0.70;;;7.40;99.90;;;;;;4872029;29;20223;-81
2021/12/06 12:01:12;;;;;;;1.20;1.17;;;7.30;99.90;;;;;;4867615;29;20552;-81
2021/12/06 12:03:40;;;;;;;1.67;0.57;;;7.30;99.90;;;;;;4872421;29;20192;-81
2021/12/06 12:06:33;;;;;;;1.27;0.73;;;7.60;99.90;;;;;;4871215;29;20208;-81
2021/12/06 12:09:15;;;;;;;0.93;0.63;;;7.40;99.90;;;;;;4870302;29;20591;-81
2021/12/06 12:12:04;;;;;;;0.30;0.30;;;7.50;99.90;;;;;;4881279;29;20207;-81
2021/12/06 12:14:38;;;;;;;0.73;0.73;;;7.50;99.90;;;;;;4873253;29;20193;-80
2021/12/06 12:17:16;;;;;;;1.67;0.63;;;7.50;99.90;;;;;;4870676;29;20235;-81
2021/12/06 12:19:42;;;;;;;0.93;0.53;;;7.70;99.90;;;;;;4874869;29;20187;-81
2021/12/06 12:22:09;;;;;;;0.40;0.40;;;7.80;99.90;;;;;;4876494;29;20243;-82
2021/12/06 12:24:38;;;;;;;0.20;0.20;;;7.80;99.90;;;;;;4881344;29;20195;-81
2021/12/06 12:27:19;;;;;;;0.50;0.50;;;7.80;99.90;;;;;;4875240;29;20207;-81
2021/12/06 12:29:46;;;;;;;0.40;0.40;;;7.90;99.90;;;;;;4875075;29;20702;-81
2021/12/06 12:32:12;;;;;;;0.30;0.30;;;7.60;99.90;;;;;;4873962;29;20683;-81
2021/12/06 12:34:42;;;;;;;1.73;1.60;;;7.40;99.90;;;;;;4880782;29;20200;-81
2021/12/06 12:37:11;;;;;;;0.47;0.23;;;7.30;99.90;;;;;;4878301;29;20256;-81
2021/12/06 12:39:37;;;;;;;1.13;0.80;;;7.10;99.90;;;;;;4875197;29;20214;-82
2021/12/06 12:42:05;;;;;;;0.43;0.43;;;7.00;99.90;;;;;;4873209;29;20185;-81
2021/12/06 12:44:47;;;;;;;0.40;0.40;;;6.90;99.90;;;;;;4870738;29;20199;-81
2021/12/06 12:47:19;;;;;;;0.67;0.67;;;7.10;99.90;;;;;;4878400;29;20563;-81
2021/12/06 12:49:48;;;;;;;1.03;1.03;;;7.00;99.90;;;;;;4880247;29;20195;-81
2021/12/06 12:52:16;;;;;;;0.43;0.43;;;7.10;99.90;;;;;;4880718;29;20184;-81
2021/12/06 12:54:45;;;;;;;0.73;0.73;;;7.20;99.90;;;;;;4877061;29;20310;-81
2021/12/06 12:57:14;;;;;;;0.47;0.47;;;7.30;99.90;;;;;;4872059;29;20172;-81
2021/12/06 12:59:54;;;;;;;0.43;0.43;;;7.40;99.90;;;;;;4871037;29;20190;-81
2021/12/06 13:02:27;;;;;;;0.50;0.43;;;7.50;99.90;;;;;;4878748;29;20558;-81
2021/12/06 13:04:58;;;;;;;1.47;0.27;;;7.40;99.90;;;;;;4875375;29;20185;-81
2021/12/06 13:07:28;;;;;;;0.50;0.43;;;7.40;99.90;;;;;;4873991;29;20180;-81
2021/12/06 13:09:56;;;;;;;0.30;0.30;;;7.50;99.90;;;;;;4873450;29;20191;-84
2021/12/06 13:12:21;;;;;;;1.03;0.40;;;7.40;99.90;;;;;;4879437;29;20218;-81
2021/12/06 13:14:55;;;;;;;0.73;0.73;;;7.40;99.90;;;;;;4878357;29;20232;-81